createdAt,value
2019-03-12T00:02:12.555Z,4.10
2019-03-12T00:04:53.408Z,4.20
2019-03-12T00:07:34.190Z,4.10
2019-03-12T00:10:15.216Z,4.10
2019-03-12T00:12:56.382Z,4.20
2019-03-12T00:15:37.273Z,4.20
2019-03-12T00:20:48.235Z,4.20
2019-03-12T00:23:17.042Z,4.20
2019-03-12T00:26:05.171Z,4.20
2019-03-12T00:28:53.294Z,4.20
2019-03-12T00:31:41.381Z,4.30
2019-03-12T00:34:29.488Z,4.10
2019-03-12T00:37:17.699Z,4.30
2019-03-12T00:39:46.601Z,4.30
2019-03-12T00:42:34.808Z,4.30
2019-03-12T00:45:22.958Z,4.30
2019-03-12T00:48:11.080Z,4.30
2019-03-12T00:50:40.006Z,4.30
2019-03-12T00:53:28.095Z,4.30
2019-03-12T00:55:56.936Z,4.30
2019-03-12T00:58:45.153Z,4.20
2019-03-12T01:01:33.185Z,4.30
2019-03-12T01:04:21.292Z,4.30
2019-03-12T01:07:09.426Z,4.30
2019-03-12T01:09:57.498Z,4.30
2019-03-12T01:12:38.178Z,4.30
2019-03-12T01:15:18.975Z,4.30
2019-03-12T01:20:41.731Z,4.30
2019-03-12T01:26:05.051Z,4.20
2019-03-12T01:28:46.338Z,4.20
2019-03-12T01:31:27.278Z,4.20
2019-03-12T01:34:08.634Z,4.20
2019-03-12T01:36:49.341Z,4.20
2019-03-12T01:39:29.801Z,4.10
2019-03-12T01:42:10.417Z,4.10
2019-03-12T01:44:51.087Z,4.10
2019-03-12T01:47:31.674Z,4.10
2019-03-12T01:50:12.635Z,4.10
2019-03-12T01:52:53.273Z,4.20
2019-03-12T01:55:33.884Z,4.20
2019-03-12T01:58:14.841Z,4.20
2019-03-12T02:00:43.697Z,4.30
2019-03-12T02:03:12.619Z,4.30
2019-03-12T02:06:00.785Z,4.20
2019-03-12T02:08:48.910Z,4.10
2019-03-12T02:11:37.054Z,4.20
2019-03-12T02:14:26.061Z,4.20
2019-03-12T02:19:49.089Z,4.20
2019-03-12T02:22:17.978Z,4.10
2019-03-12T02:25:06.466Z,4.00
2019-03-12T02:27:54.633Z,3.90
2019-03-12T02:30:42.658Z,3.90
2019-03-12T02:33:30.857Z,3.80
2019-03-12T02:36:18.895Z,3.70
2019-03-12T02:39:07.860Z,3.60
2019-03-12T02:41:55.973Z,3.40
2019-03-12T02:44:44.046Z,3.40
2019-03-12T02:47:32.181Z,3.20
2019-03-12T02:50:20.299Z,3.10
2019-03-12T02:53:08.327Z,3.00
2019-03-12T02:55:56.452Z,2.90
2019-03-12T02:58:44.554Z,2.90
2019-03-12T03:01:32.699Z,2.90
2019-03-12T03:04:20.811Z,2.70
2019-03-12T03:07:28.015Z,2.50
2019-03-12T03:10:16.141Z,2.50
2019-03-12T03:13:04.313Z,2.50
2019-03-12T03:15:52.433Z,2.40
2019-03-12T03:18:33.618Z,2.30
2019-03-12T03:21:14.466Z,2.30
2019-03-12T03:23:55.208Z,2.20
2019-03-12T03:29:18.233Z,2.30
2019-03-12T03:31:47.085Z,2.20
2019-03-12T03:34:15.990Z,2.10
2019-03-12T03:37:04.056Z,2.20
2019-03-12T03:39:33.015Z,2.10
2019-03-12T03:42:21.167Z,2.20
2019-03-12T03:45:09.208Z,2.20
2019-03-12T03:50:44.945Z,2.10
2019-03-12T03:53:33.014Z,2.10
2019-03-12T03:56:21.135Z,2.10
2019-03-12T03:59:09.254Z,2.10
2019-03-12T04:01:57.296Z,2.10
2019-03-12T04:04:45.454Z,2.10
2019-03-12T04:07:33.501Z,2.10
2019-03-12T04:10:21.662Z,2.10
2019-03-12T04:13:09.787Z,2.30
2019-03-12T04:15:38.827Z,2.40
2019-03-12T04:21:40.992Z,2.50
2019-03-12T04:24:21.860Z,2.40
2019-03-12T04:27:02.740Z,2.30
2019-03-12T04:29:43.576Z,2.30
2019-03-12T04:32:23.999Z,2.30
2019-03-12T04:35:05.070Z,2.20
2019-03-12T04:37:33.876Z,2.20
2019-03-12T04:40:02.862Z,2.20
2019-03-12T04:42:51.082Z,2.10
2019-03-12T04:45:39.119Z,2.10
2019-03-12T04:48:27.249Z,2.10
2019-03-12T04:51:15.329Z,2.20
2019-03-12T04:54:03.472Z,2.40
2019-03-12T04:56:51.511Z,2.50
2019-03-12T04:59:39.575Z,2.60
2019-03-12T05:02:27.643Z,2.70
2019-03-12T05:05:15.867Z,2.70
2019-03-12T05:08:04.010Z,2.80
2019-03-12T05:10:52.057Z,2.80
2019-03-12T05:13:40.105Z,2.90
2019-03-12T05:16:28.217Z,2.90
2019-03-12T05:18:57.098Z,3.00
2019-03-12T05:21:45.255Z,3.00
2019-03-12T05:24:33.346Z,3.00
2019-03-12T05:27:21.386Z,3.10
2019-03-12T05:30:10.832Z,3.10
2019-03-12T05:32:58.953Z,3.10
2019-03-12T05:35:47.069Z,3.10
2019-03-12T05:38:35.122Z,3.20
2019-03-12T05:41:23.348Z,3.40
2019-03-12T05:44:11.461Z,3.30
2019-03-12T05:46:59.564Z,3.30
2019-03-12T05:49:47.829Z,3.40
2019-03-12T05:52:35.878Z,3.50
2019-03-12T05:55:23.933Z,3.50
2019-03-12T05:57:52.856Z,3.50
2019-03-12T06:03:30.640Z,3.50
2019-03-12T06:05:59.532Z,3.50
2019-03-12T06:08:47.642Z,3.50
2019-03-12T06:11:35.725Z,3.60
2019-03-12T06:14:23.880Z,3.60
2019-03-12T06:17:12.094Z,3.70
2019-03-12T06:19:53.314Z,3.70
2019-03-12T06:22:33.634Z,3.80
2019-03-12T06:25:14.393Z,3.80
2019-03-12T06:27:55.247Z,3.90
2019-03-12T06:34:09.853Z,3.90
2019-03-12T06:37:15.140Z,3.90
2019-03-12T06:40:14.859Z,4.00
2019-03-12T06:43:14.393Z,4.00
2019-03-12T06:46:13.989Z,4.10
2019-03-12T06:49:14.507Z,4.20
2019-03-12T06:52:13.972Z,4.40
2019-03-12T06:54:52.988Z,4.40
2019-03-12T06:58:19.521Z,4.50
2019-03-12T07:01:27.256Z,4.40
2019-03-12T07:04:24.610Z,4.50
2019-03-12T07:07:19.571Z,4.60
2019-03-12T07:10:27.437Z,4.70
2019-03-12T07:13:34.617Z,4.80
2019-03-12T07:16:41.785Z,4.70
2019-03-12T07:19:48.996Z,4.70
2019-03-12T07:22:45.981Z,4.80
2019-03-12T07:25:38.940Z,4.80
2019-03-12T07:28:50.218Z,4.90
2019-03-12T07:31:55.031Z,4.90
2019-03-12T07:34:51.264Z,4.90
2019-03-12T07:37:58.420Z,4.70
2019-03-12T07:41:05.621Z,4.70
2019-03-12T07:44:05.722Z,4.60
2019-03-12T07:46:50.076Z,4.60
2019-03-12T07:49:38.176Z,4.70
2019-03-12T07:52:41.663Z,4.70
2019-03-12T07:55:40.020Z,5.00
2019-03-12T07:58:46.078Z,5.20
2019-03-12T08:01:37.047Z,5.30
2019-03-12T08:04:26.565Z,5.30
2019-03-12T08:07:27.111Z,5.30
2019-03-12T08:10:19.838Z,5.30
2019-03-12T08:13:12.639Z,5.50
2019-03-12T08:16:01.903Z,5.60
2019-03-12T08:19:01.539Z,5.70
2019-03-12T08:22:04.761Z,5.80
2019-03-12T08:24:52.822Z,5.80
2019-03-12T08:27:53.185Z,5.90
2019-03-12T08:30:41.797Z,6.00
2019-03-12T08:33:29.802Z,6.10
2019-03-12T08:36:37.087Z,6.30
2019-03-12T08:39:32.632Z,6.40
2019-03-12T08:42:39.749Z,6.60
2019-03-12T08:45:48.803Z,6.60
2019-03-12T08:48:36.702Z,6.60
2019-03-12T08:51:43.906Z,6.70
2019-03-12T08:54:54.498Z,6.70
2019-03-12T08:57:48.561Z,6.50
2019-03-12T09:00:55.706Z,6.70
2019-03-12T09:04:02.853Z,6.90
2019-03-12T09:07:10.113Z,6.70
2019-03-12T09:10:17.254Z,6.50
2019-03-12T09:16:24.369Z,6.50
2019-03-12T09:19:31.554Z,6.50
2019-03-12T09:22:38.774Z,6.80
2019-03-12T09:25:29.731Z,6.80
2019-03-12T09:28:35.587Z,6.90
2019-03-12T09:31:39.137Z,7.20
2019-03-12T09:37:46.695Z,7.70
2019-03-12T09:40:53.938Z,7.60
2019-03-12T09:44:01.046Z,7.60
2019-03-12T09:47:08.178Z,7.60
2019-03-12T09:50:00.786Z,7.40
2019-03-12T09:53:07.919Z,7.30
2019-03-12T09:56:15.038Z,7.30
2019-03-12T09:59:22.183Z,7.30
2019-03-12T10:02:21.967Z,7.20
2019-03-12T10:05:29.249Z,7.10
2019-03-12T10:08:36.449Z,7.10
2019-03-12T10:11:24.418Z,7.40
2019-03-12T10:14:31.578Z,7.60
2019-03-12T10:17:38.826Z,7.60
2019-03-12T10:20:28.058Z,7.80
2019-03-12T10:23:35.219Z,7.80
2019-03-12T10:26:35.382Z,7.90
2019-03-12T10:29:34.793Z,7.70
2019-03-12T10:32:27.912Z,7.70
2019-03-12T10:35:33.586Z,7.80
2019-03-12T10:38:25.349Z,7.80
2019-03-12T10:41:19.243Z,7.90
2019-03-12T10:44:16.493Z,8.10
2019-03-12T10:47:23.710Z,8.40
2019-03-12T10:50:11.836Z,8.70
2019-03-12T10:52:53.108Z,8.80
2019-03-12T10:55:34.194Z,8.80
2019-03-12T10:58:14.915Z,9.10
2019-03-12T11:00:55.675Z,8.80
2019-03-12T11:03:36.348Z,9.00
2019-03-12T11:06:17.018Z,9.30
2019-03-12T11:08:57.911Z,9.30
2019-03-12T11:11:38.533Z,9.40
2019-03-12T11:14:19.473Z,9.30
2019-03-12T11:17:00.497Z,9.10
2019-03-12T11:19:41.131Z,9.10
2019-03-12T11:25:05.096Z,8.80
2019-03-12T11:30:28.266Z,9.40
2019-03-12T11:32:57.226Z,9.00
2019-03-12T11:35:45.415Z,9.10
2019-03-12T11:38:33.924Z,9.10
2019-03-12T11:41:23.352Z,9.40
2019-03-12T11:44:11.617Z,9.40
2019-03-12T11:46:59.751Z,9.50
2019-03-12T11:49:28.595Z,9.30
2019-03-12T11:52:16.745Z,9.40
2019-03-12T11:54:58.071Z,9.30
2019-03-12T11:57:39.245Z,9.10
2019-03-12T12:00:26.041Z,9.20
2019-03-12T12:03:07.354Z,9.30
2019-03-12T12:05:48.764Z,9.50
2019-03-12T12:08:30.176Z,9.50
2019-03-12T12:11:11.226Z,9.70
2019-03-12T12:13:52.219Z,9.80
2019-03-12T12:19:14.872Z,9.60
2019-03-12T12:21:55.529Z,9.70
2019-03-12T12:24:36.475Z,10.10
2019-03-12T12:27:17.154Z,10.00
2019-03-12T12:29:57.935Z,9.90
2019-03-12T12:32:38.654Z,10.10
2019-03-12T12:35:19.885Z,10.40
2019-03-12T12:38:00.620Z,10.40
2019-03-12T12:40:41.148Z,10.30
2019-03-12T12:43:21.776Z,10.10
2019-03-12T12:46:01.187Z,10.20
2019-03-12T12:48:49.554Z,10.00
2019-03-12T12:51:37.624Z,10.00
2019-03-12T12:54:25.765Z,10.10
2019-03-12T12:57:13.889Z,10.00
2019-03-12T13:00:02.273Z,10.00
2019-03-12T13:02:50.478Z,9.90
2019-03-12T13:05:38.732Z,9.70
2019-03-12T13:08:26.913Z,9.90
2019-03-12T13:11:15.013Z,9.80
2019-03-12T13:14:03.154Z,9.90
2019-03-12T13:16:51.284Z,9.70
2019-03-12T13:19:39.521Z,9.80
2019-03-12T13:22:29.194Z,9.80
2019-03-12T13:25:17.363Z,9.90
2019-03-12T13:27:46.343Z,10.10
2019-03-12T13:30:17.795Z,10.30
2019-03-12T13:33:05.994Z,10.30
2019-03-12T13:35:54.202Z,10.30
2019-03-12T13:38:45.994Z,10.50
2019-03-12T13:41:32.244Z,10.30
2019-03-12T13:44:20.435Z,10.50
2019-03-12T13:47:00.931Z,10.60
2019-03-12T13:49:42.110Z,10.90
2019-03-12T13:52:23.213Z,10.50
2019-03-12T13:54:52.245Z,10.50
2019-03-12T13:57:33.481Z,10.40
2019-03-12T14:00:02.597Z,10.60
2019-03-12T14:08:37.530Z,10.70
2019-03-12T14:11:25.753Z,10.60
2019-03-12T14:14:13.952Z,10.80
2019-03-12T14:17:02.281Z,10.70
2019-03-12T14:19:50.537Z,10.30
2019-03-12T14:22:38.753Z,10.50
2019-03-12T14:25:27.573Z,10.50
2019-03-12T14:28:15.608Z,10.60
2019-03-12T14:31:04.224Z,10.70
2019-03-12T14:33:52.440Z,10.50
2019-03-12T14:36:40.670Z,10.40
2019-03-12T14:39:28.924Z,10.40
2019-03-12T14:42:17.145Z,10.50
2019-03-12T14:45:25.946Z,10.40
2019-03-12T14:48:33.309Z,10.30
2019-03-12T14:51:40.762Z,10.40
2019-03-12T14:54:28.898Z,10.30
2019-03-12T14:57:17.083Z,10.10
2019-03-12T14:59:57.458Z,9.90
2019-03-12T15:02:41.593Z,9.80
2019-03-12T15:05:23.375Z,9.80
2019-03-12T15:07:52.495Z,9.70
2019-03-12T15:10:40.578Z,9.70
2019-03-12T15:13:28.697Z,9.70
2019-03-12T15:16:16.774Z,9.50
2019-03-12T15:19:05.026Z,9.60
2019-03-12T15:21:53.219Z,9.60
2019-03-12T15:24:41.461Z,9.40
2019-03-12T15:27:29.620Z,9.30
2019-03-12T15:30:18.323Z,9.50
2019-03-12T15:33:06.737Z,9.40
2019-03-12T15:35:54.826Z,9.40
2019-03-12T15:38:42.969Z,9.40
2019-03-12T15:41:31.192Z,9.40
2019-03-12T15:44:19.562Z,9.30
2019-03-12T15:47:09.155Z,9.30
2019-03-12T15:49:57.235Z,9.20
2019-03-12T15:52:45.382Z,9.10
2019-03-12T15:55:33.453Z,9.10
2019-03-12T15:58:22.268Z,9.10
2019-03-12T16:03:49.263Z,9.10
2019-03-12T16:06:30.559Z,9.10
2019-03-12T16:09:11.521Z,9.00
2019-03-12T16:11:52.260Z,8.90
2019-03-12T16:14:38.307Z,8.90
2019-03-12T16:17:19.765Z,8.90
2019-03-12T16:20:01.332Z,8.90
2019-03-12T16:22:30.575Z,8.80
2019-03-12T16:25:18.720Z,8.80
2019-03-12T16:28:07.043Z,8.80
2019-03-12T16:30:55.269Z,8.80
2019-03-12T16:33:43.429Z,8.80
2019-03-12T16:36:31.584Z,8.70
2019-03-12T16:39:19.832Z,8.70
2019-03-12T16:42:07.959Z,8.70
2019-03-12T16:44:56.057Z,8.60
2019-03-12T16:47:25.064Z,8.60
2019-03-12T16:50:13.318Z,8.60
2019-03-12T16:53:01.385Z,8.70
2019-03-12T16:55:49.658Z,8.60
2019-03-12T16:58:37.979Z,8.70
2019-03-12T17:01:19.257Z,8.60
2019-03-12T17:04:00.133Z,8.60
2019-03-12T17:06:41.465Z,8.60
2019-03-12T17:09:22.267Z,8.60
2019-03-12T17:12:02.868Z,8.60
2019-03-12T17:14:43.831Z,8.60
2019-03-12T17:17:24.460Z,8.50
2019-03-12T17:20:05.994Z,8.40
2019-03-12T17:22:46.613Z,8.30
2019-03-12T17:25:15.806Z,8.30
2019-03-12T17:28:04.060Z,8.30
2019-03-12T17:30:52.365Z,8.40
2019-03-12T17:33:40.578Z,8.40
2019-03-12T17:36:28.807Z,8.40
2019-03-12T17:39:16.927Z,8.30
2019-03-12T17:42:05.090Z,8.30
2019-03-12T17:44:53.258Z,8.20
2019-03-12T17:47:41.417Z,8.20
2019-03-12T17:50:29.756Z,8.20
2019-03-12T17:53:18.289Z,8.20
2019-03-12T17:56:06.496Z,8.10
2019-03-12T17:58:54.745Z,8.10
2019-03-12T18:01:42.952Z,8.10
2019-03-12T18:04:26.493Z,8.10
2019-03-12T18:07:07.258Z,8.10
2019-03-12T18:09:48.198Z,8.00
2019-03-12T18:12:29.242Z,8.10
2019-03-12T18:15:10.291Z,8.10
2019-03-12T18:17:53.770Z,8.10
2019-03-12T18:20:36.274Z,8.00
2019-03-12T18:23:17.007Z,8.10
2019-03-12T18:28:28.439Z,8.10
2019-03-12T18:31:16.669Z,8.20
2019-03-12T18:34:04.850Z,8.10
2019-03-12T18:36:53.048Z,8.10
2019-03-12T18:39:22.060Z,8.10
2019-03-12T18:42:10.513Z,8.00
2019-03-12T18:44:58.799Z,8.00
2019-03-12T18:47:47.420Z,8.00
2019-03-12T18:50:35.674Z,8.00
2019-03-12T18:53:23.780Z,7.90
2019-03-12T18:56:11.975Z,7.90
2019-03-12T18:59:00.530Z,7.90
2019-03-12T19:01:48.949Z,7.90
2019-03-12T19:04:20.993Z,7.80
2019-03-12T19:07:09.113Z,7.80
2019-03-12T19:10:12.953Z,7.70
2019-03-12T19:13:06.784Z,7.70
2019-03-12T19:15:55.427Z,7.70
2019-03-12T19:18:43.808Z,7.70
2019-03-12T19:21:14.937Z,7.80
2019-03-12T19:24:03.130Z,7.80
2019-03-12T19:26:32.395Z,7.80
2019-03-12T19:29:20.727Z,7.80
2019-03-12T19:32:14.254Z,7.90
2019-03-12T19:35:04.978Z,7.90
2019-03-12T19:37:34.336Z,7.90
2019-03-12T19:40:22.688Z,8.00
2019-03-12T19:43:10.909Z,8.00
2019-03-12T19:45:59.143Z,8.00
2019-03-12T19:48:47.338Z,8.00
2019-03-12T19:51:35.736Z,8.10
2019-03-12T19:57:34.298Z,8.10
2019-03-12T20:05:49.544Z,8.10
2019-03-12T20:08:44.961Z,8.10
2019-03-12T20:11:52.363Z,8.00
2019-03-12T20:15:02.025Z,8.00
2019-03-12T20:17:49.363Z,8.00
2019-03-12T20:20:57.029Z,8.10
2019-03-12T20:24:04.655Z,8.00
2019-03-12T20:27:12.179Z,8.00
2019-03-12T20:30:20.025Z,8.00
2019-03-12T20:33:27.329Z,8.00
2019-03-12T20:36:34.694Z,8.00
2019-03-12T20:39:42.187Z,7.90
2019-03-12T20:42:49.538Z,8.00
2019-03-12T20:46:09.222Z,8.00
2019-03-12T20:49:15.837Z,8.00
2019-03-12T20:59:29.290Z,8.00
2019-03-12T21:02:38.851Z,8.00
2019-03-12T21:05:46.242Z,8.00
2019-03-12T21:08:27.254Z,8.00
2019-03-12T21:11:37.667Z,8.00
2019-03-12T21:14:45.296Z,8.10
2019-03-12T21:17:52.822Z,8.10
2019-03-12T21:21:00.274Z,8.10
2019-03-12T21:27:16.311Z,8.10
2019-03-12T21:30:04.386Z,8.10
2019-03-12T21:32:53.480Z,8.10
2019-03-12T21:35:41.693Z,8.10
2019-03-12T21:38:29.988Z,8.00
2019-03-12T21:40:59.553Z,8.00
2019-03-12T21:43:47.974Z,8.00
2019-03-12T21:46:36.352Z,8.00
2019-03-12T21:49:24.925Z,8.00
2019-03-12T21:52:13.664Z,8.00
2019-03-12T21:55:02.021Z,8.10
2019-03-12T21:57:31.610Z,8.10
2019-03-12T22:00:00.820Z,8.00
2019-03-12T22:02:49.049Z,8.00
2019-03-12T22:05:18.325Z,8.00
2019-03-12T22:07:47.377Z,8.00
2019-03-12T22:10:41.966Z,8.10
2019-03-12T22:13:28.420Z,8.10
2019-03-12T22:16:16.662Z,8.10
2019-03-12T22:19:04.862Z,8.10
2019-03-12T22:22:12.298Z,8.10
2019-03-12T22:24:41.286Z,8.00
2019-03-12T22:27:10.245Z,8.00
2019-03-12T22:29:58.425Z,8.00
2019-03-12T22:32:46.824Z,8.10
2019-03-12T22:35:35.081Z,8.10
2019-03-12T22:38:23.206Z,8.10
2019-03-12T22:40:52.192Z,8.20
2019-03-12T22:43:40.278Z,8.20
2019-03-12T22:46:47.891Z,8.20
2019-03-12T22:49:36.122Z,8.20
2019-03-12T22:52:24.307Z,8.10
2019-03-12T22:55:12.486Z,8.10
2019-03-12T22:58:00.561Z,8.10
2019-03-12T23:00:49.270Z,8.10
2019-03-12T23:03:37.743Z,8.20
2019-03-12T23:06:28.543Z,8.20
2019-03-12T23:09:08.327Z,8.20
2019-03-12T23:11:49.299Z,8.20
2019-03-12T23:14:29.848Z,8.20
2019-03-12T23:17:10.827Z,8.20
2019-03-12T23:19:40.061Z,8.20
2019-03-12T23:22:28.301Z,8.20
2019-03-12T23:25:18.107Z,8.30
2019-03-12T23:28:06.669Z,8.30
2019-03-12T23:30:55.341Z,8.40
2019-03-12T23:33:43.494Z,8.30
2019-03-12T23:36:31.643Z,8.40
2019-03-12T23:39:00.591Z,8.40
2019-03-12T23:41:48.836Z,8.50
2019-03-12T23:44:37.055Z,8.60
2019-03-12T23:47:25.279Z,8.60
2019-03-12T23:53:22.629Z,8.50
2019-03-12T23:55:51.605Z,8.50
2019-03-12T23:58:39.675Z,8.60
